sensor_id;sensor_type;location;lat;lon;timestamp;P1;durP1;ratioP1;P2;durP2;ratioP2
48635;SDS011;34429;52.332;5.614;2022-09-09T00:01:59;4.53;;;2.15;;
48635;SDS011;34429;52.332;5.614;2022-09-09T00:04:35;3.33;;;1.90;;
48635;SDS011;34429;52.332;5.614;2022-09-09T00:07:07;5.60;;;1.77;;
48635;SDS011;34429;52.332;5.614;2022-09-09T00:09:44;3.55;;;2.05;;
48635;SDS011;34429;52.332;5.614;2022-09-09T00:12:15;2.53;;;1.95;;
48635;SDS011;34429;52.332;5.614;2022-09-09T00:14:54;4.38;;;2.28;;
48635;SDS011;34429;52.332;5.614;2022-09-09T00:17:29;3.38;;;1.85;;
48635;SDS011;34429;52.332;5.614;2022-09-09T00:20:10;3.45;;;1.95;;
48635;SDS011;34429;52.332;5.614;2022-09-09T00:22:42;2.30;;;1.63;;
48635;SDS011;34429;52.332;5.614;2022-09-09T00:25:16;5.05;;;1.90;;
48635;SDS011;34429;52.332;5.614;2022-09-09T00:27:51;3.72;;;1.80;;
48635;SDS011;34429;52.332;5.614;2022-09-09T00:30:20;2.30;;;1.50;;
48635;SDS011;34429;52.332;5.614;2022-09-09T00:32:53;3.20;;;1.52;;
48635;SDS011;34429;52.332;5.614;2022-09-09T00:35:26;3.85;;;1.60;;
48635;SDS011;34429;52.332;5.614;2022-09-09T00:37:58;5.95;;;1.85;;
48635;SDS011;34429;52.332;5.614;2022-09-09T00:40:30;2.13;;;1.35;;
48635;SDS011;34429;52.332;5.614;2022-09-09T00:43:06;2.20;;;1.38;;
48635;SDS011;34429;52.332;5.614;2022-09-09T00:48:53;2.03;;;1.23;;
48635;SDS011;34429;52.332;5.614;2022-09-09T00:51:34;2.10;;;1.38;;
48635;SDS011;34429;52.332;5.614;2022-09-09T00:54:28;2.88;;;1.42;;
48635;SDS011;34429;52.332;5.614;2022-09-09T00:57:07;3.13;;;1.65;;
48635;SDS011;34429;52.332;5.614;2022-09-09T00:59:55;6.22;;;1.92;;
48635;SDS011;34429;52.332;5.614;2022-09-09T01:02:29;3.00;;;2.08;;
48635;SDS011;34429;52.332;5.614;2022-09-09T01:05:05;2.80;;;2.35;;
48635;SDS011;34429;52.332;5.614;2022-09-09T01:07:42;3.13;;;2.08;;
48635;SDS011;34429;52.332;5.614;2022-09-09T01:10:17;4.45;;;2.25;;
48635;SDS011;34429;52.332;5.614;2022-09-09T01:12:55;4.22;;;2.40;;
48635;SDS011;34429;52.332;5.614;2022-09-09T01:15:29;4.35;;;2.88;;
48635;SDS011;34429;52.332;5.614;2022-09-09T01:18:02;3.97;;;2.63;;
48635;SDS011;34429;52.332;5.614;2022-09-09T01:20:36;4.47;;;2.55;;
48635;SDS011;34429;52.332;5.614;2022-09-09T01:23:18;4.97;;;2.90;;
48635;SDS011;34429;52.332;5.614;2022-09-09T01:28:51;4.40;;;3.50;;
48635;SDS011;34429;52.332;5.614;2022-09-09T01:31:21;5.97;;;2.80;;
48635;SDS011;34429;52.332;5.614;2022-09-09T01:33:54;5.50;;;3.55;;
48635;SDS011;34429;52.332;5.614;2022-09-09T01:36:24;5.67;;;3.50;;
48635;SDS011;34429;52.332;5.614;2022-09-09T01:38:58;8.75;;;4.00;;
48635;SDS011;34429;52.332;5.614;2022-09-09T01:41:29;5.25;;;3.75;;
48635;SDS011;34429;52.332;5.614;2022-09-09T01:43:58;7.13;;;3.40;;
48635;SDS011;34429;52.332;5.614;2022-09-09T01:46:26;5.13;;;3.80;;
48635;SDS011;34429;52.332;5.614;2022-09-09T01:48:56;7.53;;;3.85;;
48635;SDS011;34429;52.332;5.614;2022-09-09T01:51:30;5.22;;;3.88;;
48635;SDS011;34429;52.332;5.614;2022-09-09T01:53:58;7.78;;;3.65;;
48635;SDS011;34429;52.332;5.614;2022-09-09T01:56:34;8.48;;;4.15;;
48635;SDS011;34429;52.332;5.614;2022-09-09T01:59:19;7.75;;;4.50;;
48635;SDS011;34429;52.332;5.614;2022-09-09T02:01:57;8.15;;;4.47;;
48635;SDS011;34429;52.332;5.614;2022-09-09T02:04:39;7.38;;;4.72;;
48635;SDS011;34429;52.332;5.614;2022-09-09T02:07:15;6.78;;;4.53;;
48635;SDS011;34429;52.332;5.614;2022-09-09T02:09:56;6.57;;;4.53;;
48635;SDS011;34429;52.332;5.614;2022-09-09T02:12:32;6.10;;;4.57;;
48635;SDS011;34429;52.332;5.614;2022-09-09T02:15:02;7.13;;;4.38;;
48635;SDS011;34429;52.332;5.614;2022-09-09T02:17:38;9.02;;;4.85;;
48635;SDS011;34429;52.332;5.614;2022-09-09T02:20:10;8.75;;;4.82;;
48635;SDS011;34429;52.332;5.614;2022-09-09T02:22:41;7.47;;;4.45;;
48635;SDS011;34429;52.332;5.614;2022-09-09T02:25:13;10.63;;;5.43;;
48635;SDS011;34429;52.332;5.614;2022-09-09T02:27:47;8.50;;;5.30;;
48635;SDS011;34429;52.332;5.614;2022-09-09T02:30:18;14.63;;;5.55;;
48635;SDS011;34429;52.332;5.614;2022-09-09T02:32:48;7.15;;;4.55;;
48635;SDS011;34429;52.332;5.614;2022-09-09T02:35:22;7.63;;;4.90;;
48635;SDS011;34429;52.332;5.614;2022-09-09T02:37:53;7.72;;;4.85;;
48635;SDS011;34429;52.332;5.614;2022-09-09T02:40:24;7.63;;;5.38;;
48635;SDS011;34429;52.332;5.614;2022-09-09T02:42:55;8.00;;;5.03;;
48635;SDS011;34429;52.332;5.614;2022-09-09T02:45:25;8.05;;;5.40;;
48635;SDS011;34429;52.332;5.614;2022-09-09T02:48:02;9.88;;;4.95;;
48635;SDS011;34429;52.332;5.614;2022-09-09T02:50:36;7.53;;;4.35;;
48635;SDS011;34429;52.332;5.614;2022-09-09T02:53:10;8.45;;;5.28;;
48635;SDS011;34429;52.332;5.614;2022-09-09T02:55:46;7.72;;;4.28;;
48635;SDS011;34429;52.332;5.614;2022-09-09T02:58:18;10.15;;;4.78;;
48635;SDS011;34429;52.332;5.614;2022-09-09T03:00:48;6.18;;;4.10;;
48635;SDS011;34429;52.332;5.614;2022-09-09T03:03:18;7.75;;;4.30;;
48635;SDS011;34429;52.332;5.614;2022-09-09T03:08:15;10.07;;;5.10;;
48635;SDS011;34429;52.332;5.614;2022-09-09T03:10:44;9.23;;;4.85;;
48635;SDS011;34429;52.332;5.614;2022-09-09T03:13:12;8.87;;;4.87;;
48635;SDS011;34429;52.332;5.614;2022-09-09T03:15:43;9.10;;;4.97;;
48635;SDS011;34429;52.332;5.614;2022-09-09T03:18:13;8.07;;;4.90;;
48635;SDS011;34429;52.332;5.614;2022-09-09T03:20:41;11.07;;;5.00;;
48635;SDS011;34429;52.332;5.614;2022-09-09T03:23:11;9.65;;;5.40;;
48635;SDS011;34429;52.332;5.614;2022-09-09T03:25:39;9.15;;;5.10;;
48635;SDS011;34429;52.332;5.614;2022-09-09T03:28:13;10.38;;;5.78;;
48635;SDS011;34429;52.332;5.614;2022-09-09T03:30:44;9.65;;;5.85;;
48635;SDS011;34429;52.332;5.614;2022-09-09T03:33:13;8.73;;;5.78;;
48635;SDS011;34429;52.332;5.614;2022-09-09T03:35:44;12.13;;;5.53;;
48635;SDS011;34429;52.332;5.614;2022-09-09T03:38:14;10.95;;;5.65;;
48635;SDS011;34429;52.332;5.614;2022-09-09T03:40:48;10.38;;;6.07;;
48635;SDS011;34429;52.332;5.614;2022-09-09T03:43:17;9.18;;;5.30;;
48635;SDS011;34429;52.332;5.614;2022-09-09T03:45:48;9.13;;;5.67;;
48635;SDS011;34429;52.332;5.614;2022-09-09T03:48:18;10.80;;;5.88;;
48635;SDS011;34429;52.332;5.614;2022-09-09T03:50:47;9.45;;;5.75;;
48635;SDS011;34429;52.332;5.614;2022-09-09T03:55:45;11.18;;;5.90;;
48635;SDS011;34429;52.332;5.614;2022-09-09T03:58:14;9.27;;;6.50;;
48635;SDS011;34429;52.332;5.614;2022-09-09T04:00:43;11.32;;;6.07;;
48635;SDS011;34429;52.332;5.614;2022-09-09T04:03:23;8.48;;;5.72;;
48635;SDS011;34429;52.332;5.614;2022-09-09T04:05:52;8.95;;;6.10;;
48635;SDS011;34429;52.332;5.614;2022-09-09T04:08:21;10.65;;;5.93;;
48635;SDS011;34429;52.332;5.614;2022-09-09T04:13:18;10.90;;;5.45;;
48635;SDS011;34429;52.332;5.614;2022-09-09T04:15:50;11.07;;;5.88;;
48635;SDS011;34429;52.332;5.614;2022-09-09T04:18:20;7.70;;;6.10;;
48635;SDS011;34429;52.332;5.614;2022-09-09T04:20:52;9.50;;;6.22;;
48635;SDS011;34429;52.332;5.614;2022-09-09T04:23:22;11.18;;;5.68;;
48635;SDS011;34429;52.332;5.614;2022-09-09T04:25:53;9.85;;;6.15;;
48635;SDS011;34429;52.332;5.614;2022-09-09T04:28:25;9.57;;;6.13;;
48635;SDS011;34429;52.332;5.614;2022-09-09T04:30:55;10.40;;;5.93;;
48635;SDS011;34429;52.332;5.614;2022-09-09T04:33:26;7.68;;;5.82;;
48635;SDS011;34429;52.332;5.614;2022-09-09T04:35:56;10.13;;;5.88;;
48635;SDS011;34429;52.332;5.614;2022-09-09T04:38:24;8.73;;;5.23;;
48635;SDS011;34429;52.332;5.614;2022-09-09T04:40:53;8.73;;;5.25;;
48635;SDS011;34429;52.332;5.614;2022-09-09T04:43:22;9.77;;;5.82;;
48635;SDS011;34429;52.332;5.614;2022-09-09T04:45:50;9.10;;;5.88;;
48635;SDS011;34429;52.332;5.614;2022-09-09T04:48:19;9.80;;;5.38;;
48635;SDS011;34429;52.332;5.614;2022-09-09T04:50:58;11.82;;;6.40;;
48635;SDS011;34429;52.332;5.614;2022-09-09T04:53:28;11.20;;;6.00;;
48635;SDS011;34429;52.332;5.614;2022-09-09T04:56:02;9.38;;;6.28;;
48635;SDS011;34429;52.332;5.614;2022-09-09T04:58:31;11.05;;;5.90;;
48635;SDS011;34429;52.332;5.614;2022-09-09T05:01:05;10.00;;;6.25;;
48635;SDS011;34429;52.332;5.614;2022-09-09T05:03:34;11.35;;;6.93;;
48635;SDS011;34429;52.332;5.614;2022-09-09T05:06:07;12.20;;;6.30;;
48635;SDS011;34429;52.332;5.614;2022-09-09T05:08:36;11.85;;;6.53;;
48635;SDS011;34429;52.332;5.614;2022-09-09T05:11:12;9.93;;;5.97;;
48635;SDS011;34429;52.332;5.614;2022-09-09T05:13:42;12.45;;;6.50;;
48635;SDS011;34429;52.332;5.614;2022-09-09T05:16:10;11.05;;;6.07;;
48635;SDS011;34429;52.332;5.614;2022-09-09T05:18:40;9.10;;;6.15;;
48635;SDS011;34429;52.332;5.614;2022-09-09T05:21:13;10.25;;;6.03;;
48635;SDS011;34429;52.332;5.614;2022-09-09T05:23:42;9.85;;;6.10;;
48635;SDS011;34429;52.332;5.614;2022-09-09T05:26:11;9.33;;;6.17;;
48635;SDS011;34429;52.332;5.614;2022-09-09T05:28:41;11.55;;;6.10;;
48635;SDS011;34429;52.332;5.614;2022-09-09T05:31:10;11.38;;;5.90;;
48635;SDS011;34429;52.332;5.614;2022-09-09T05:33:40;7.60;;;5.47;;
48635;SDS011;34429;52.332;5.614;2022-09-09T05:36:14;8.63;;;5.40;;
48635;SDS011;34429;52.332;5.614;2022-09-09T05:38:43;11.40;;;6.40;;
48635;SDS011;34429;52.332;5.614;2022-09-09T05:41:13;10.80;;;5.93;;
48635;SDS011;34429;52.332;5.614;2022-09-09T05:43:42;9.80;;;5.78;;
48635;SDS011;34429;52.332;5.614;2022-09-09T05:46:13;10.10;;;5.15;;
48635;SDS011;34429;52.332;5.614;2022-09-09T05:48:43;9.95;;;5.32;;
48635;SDS011;34429;52.332;5.614;2022-09-09T05:51:18;9.35;;;5.07;;
48635;SDS011;34429;52.332;5.614;2022-09-09T05:53:49;7.18;;;4.38;;
48635;SDS011;34429;52.332;5.614;2022-09-09T05:56:20;8.27;;;5.00;;
48635;SDS011;34429;52.332;5.614;2022-09-09T05:58:50;10.88;;;5.15;;
48635;SDS011;34429;52.332;5.614;2022-09-09T06:01:20;7.72;;;4.80;;
48635;SDS011;34429;52.332;5.614;2022-09-09T06:03:50;8.80;;;4.50;;
48635;SDS011;34429;52.332;5.614;2022-09-09T06:06:22;7.63;;;4.95;;
48635;SDS011;34429;52.332;5.614;2022-09-09T06:08:52;6.25;;;4.97;;
48635;SDS011;34429;52.332;5.614;2022-09-09T06:11:22;9.80;;;5.38;;
48635;SDS011;34429;52.332;5.614;2022-09-09T06:13:52;10.02;;;5.05;;
48635;SDS011;34429;52.332;5.614;2022-09-09T06:16:21;11.67;;;5.73;;
48635;SDS011;34429;52.332;5.614;2022-09-09T06:18:51;8.95;;;4.50;;
48635;SDS011;34429;52.332;5.614;2022-09-09T06:21:24;11.50;;;5.32;;
48635;SDS011;34429;52.332;5.614;2022-09-09T06:23:54;11.75;;;5.03;;
48635;SDS011;34429;52.332;5.614;2022-09-09T06:26:22;11.70;;;6.60;;
48635;SDS011;34429;52.332;5.614;2022-09-09T06:28:52;8.02;;;5.93;;
48635;SDS011;34429;52.332;5.614;2022-09-09T06:31:23;9.68;;;5.32;;
48635;SDS011;34429;52.332;5.614;2022-09-09T06:33:55;7.45;;;4.93;;
48635;SDS011;34429;52.332;5.614;2022-09-09T06:36:27;10.65;;;5.63;;
48635;SDS011;34429;52.332;5.614;2022-09-09T06:38:57;8.98;;;4.60;;
48635;SDS011;34429;52.332;5.614;2022-09-09T06:41:26;10.85;;;5.15;;
48635;SDS011;34429;52.332;5.614;2022-09-09T06:43:56;13.68;;;4.72;;
48635;SDS011;34429;52.332;5.614;2022-09-09T06:46:26;10.57;;;4.55;;
48635;SDS011;34429;52.332;5.614;2022-09-09T06:48:58;9.52;;;4.40;;
48635;SDS011;34429;52.332;5.614;2022-09-09T06:51:30;10.70;;;5.60;;
48635;SDS011;34429;52.332;5.614;2022-09-09T06:54:00;8.73;;;4.65;;
48635;SDS011;34429;52.332;5.614;2022-09-09T06:56:30;10.10;;;5.15;;
48635;SDS011;34429;52.332;5.614;2022-09-09T06:59:00;10.18;;;4.65;;
48635;SDS011;34429;52.332;5.614;2022-09-09T07:01:31;8.82;;;4.00;;
48635;SDS011;34429;52.332;5.614;2022-09-09T07:04:01;9.38;;;4.15;;
48635;SDS011;34429;52.332;5.614;2022-09-09T07:06:36;10.93;;;4.70;;
48635;SDS011;34429;52.332;5.614;2022-09-09T07:09:05;7.70;;;3.88;;
48635;SDS011;34429;52.332;5.614;2022-09-09T07:11:37;9.30;;;4.72;;
48635;SDS011;34429;52.332;5.614;2022-09-09T07:14:07;9.80;;;3.97;;
48635;SDS011;34429;52.332;5.614;2022-09-09T07:16:37;10.52;;;4.60;;
48635;SDS011;34429;52.332;5.614;2022-09-09T07:19:06;14.10;;;5.03;;
48635;SDS011;34429;52.332;5.614;2022-09-09T07:21:38;7.95;;;4.22;;
48635;SDS011;34429;52.332;5.614;2022-09-09T07:24:07;8.20;;;4.30;;
48635;SDS011;34429;52.332;5.614;2022-09-09T07:26:36;9.90;;;4.20;;
48635;SDS011;34429;52.332;5.614;2022-09-09T07:29:06;12.50;;;3.95;;
48635;SDS011;34429;52.332;5.614;2022-09-09T07:31:35;8.55;;;3.92;;
48635;SDS011;34429;52.332;5.614;2022-09-09T07:34:04;7.68;;;3.90;;
48635;SDS011;34429;52.332;5.614;2022-09-09T07:36:34;6.93;;;3.90;;
48635;SDS011;34429;52.332;5.614;2022-09-09T07:39:07;10.25;;;3.97;;
48635;SDS011;34429;52.332;5.614;2022-09-09T07:41:38;3.83;;;3.00;;
48635;SDS011;34429;52.332;5.614;2022-09-09T07:44:09;9.70;;;4.05;;
48635;SDS011;34429;52.332;5.614;2022-09-09T07:46:42;6.55;;;3.90;;
48635;SDS011;34429;52.332;5.614;2022-09-09T07:51:40;8.33;;;4.13;;
48635;SDS011;34429;52.332;5.614;2022-09-09T07:54:13;12.88;;;5.78;;
48635;SDS011;34429;52.332;5.614;2022-09-09T07:56:45;13.27;;;4.30;;
48635;SDS011;34429;52.332;5.614;2022-09-09T07:59:14;6.80;;;3.53;;
48635;SDS011;34429;52.332;5.614;2022-09-09T08:01:44;7.50;;;3.13;;
48635;SDS011;34429;52.332;5.614;2022-09-09T08:04:14;4.03;;;2.85;;
48635;SDS011;34429;52.332;5.614;2022-09-09T08:06:44;8.73;;;3.63;;
48635;SDS011;34429;52.332;5.614;2022-09-09T08:09:17;9.18;;;3.30;;
48635;SDS011;34429;52.332;5.614;2022-09-09T08:11:45;6.88;;;3.25;;
48635;SDS011;34429;52.332;5.614;2022-09-09T08:14:14;4.55;;;2.83;;
48635;SDS011;34429;52.332;5.614;2022-09-09T08:16:43;6.85;;;3.53;;
48635;SDS011;34429;52.332;5.614;2022-09-09T08:19:13;8.82;;;3.67;;
48635;SDS011;34429;52.332;5.614;2022-09-09T08:21:42;5.60;;;2.90;;
48635;SDS011;34429;52.332;5.614;2022-09-09T08:24:11;5.40;;;2.55;;
48635;SDS011;34429;52.332;5.614;2022-09-09T08:26:44;8.75;;;2.97;;
48635;SDS011;34429;52.332;5.614;2022-09-09T08:29:14;7.43;;;3.65;;
48635;SDS011;34429;52.332;5.614;2022-09-09T08:31:44;10.10;;;2.92;;
48635;SDS011;34429;52.332;5.614;2022-09-09T08:34:13;6.40;;;2.70;;
48635;SDS011;34429;52.332;5.614;2022-09-09T08:36:45;5.85;;;2.53;;
48635;SDS011;34429;52.332;5.614;2022-09-09T08:39:14;5.05;;;2.20;;
48635;SDS011;34429;52.332;5.614;2022-09-09T08:42:00;10.00;;;2.50;;
48635;SDS011;34429;52.332;5.614;2022-09-09T08:44:51;4.53;;;2.35;;
48635;SDS011;34429;52.332;5.614;2022-09-09T08:47:42;6.35;;;2.40;;
48635;SDS011;34429;52.332;5.614;2022-09-09T08:50:23;6.22;;;2.25;;
48635;SDS011;34429;52.332;5.614;2022-09-09T08:52:57;4.47;;;2.20;;
48635;SDS011;34429;52.332;5.614;2022-09-09T08:55:35;4.30;;;2.30;;
48635;SDS011;34429;52.332;5.614;2022-09-09T08:58:12;4.45;;;2.13;;
48635;SDS011;34429;52.332;5.614;2022-09-09T09:00:47;4.43;;;2.20;;
48635;SDS011;34429;52.332;5.614;2022-09-09T09:03:28;6.28;;;2.28;;
48635;SDS011;34429;52.332;5.614;2022-09-09T09:06:08;6.90;;;1.95;;
48635;SDS011;34429;52.332;5.614;2022-09-09T09:08:45;5.97;;;2.20;;
48635;SDS011;34429;52.332;5.614;2022-09-09T09:11:23;10.55;;;2.30;;
48635;SDS011;34429;52.332;5.614;2022-09-09T09:13:54;8.90;;;3.50;;
48635;SDS011;34429;52.332;5.614;2022-09-09T09:16:30;6.95;;;2.45;;
48635;SDS011;34429;52.332;5.614;2022-09-09T09:19:01;9.77;;;2.38;;
48635;SDS011;34429;52.332;5.614;2022-09-09T09:21:33;6.10;;;2.22;;
48635;SDS011;34429;52.332;5.614;2022-09-09T09:24:09;3.40;;;2.10;;
48635;SDS011;34429;52.332;5.614;2022-09-09T09:26:44;7.05;;;2.22;;
48635;SDS011;34429;52.332;5.614;2022-09-09T09:29:16;6.47;;;2.60;;
48635;SDS011;34429;52.332;5.614;2022-09-09T09:31:47;6.72;;;2.47;;
48635;SDS011;34429;52.332;5.614;2022-09-09T09:34:19;10.77;;;2.60;;
48635;SDS011;34429;52.332;5.614;2022-09-09T09:36:52;7.38;;;2.28;;
48635;SDS011;34429;52.332;5.614;2022-09-09T09:39:22;6.68;;;2.17;;
48635;SDS011;34429;52.332;5.614;2022-09-09T09:41:53;6.90;;;2.47;;
48635;SDS011;34429;52.332;5.614;2022-09-09T09:44:26;5.28;;;2.33;;
48635;SDS011;34429;52.332;5.614;2022-09-09T09:47:05;5.68;;;2.50;;
48635;SDS011;34429;52.332;5.614;2022-09-09T09:49:35;10.18;;;2.47;;
48635;SDS011;34429;52.332;5.614;2022-09-09T09:52:05;5.30;;;1.85;;
48635;SDS011;34429;52.332;5.614;2022-09-09T09:54:37;6.30;;;2.40;;
48635;SDS011;34429;52.332;5.614;2022-09-09T09:57:08;6.20;;;2.50;;
48635;SDS011;34429;52.332;5.614;2022-09-09T09:59:40;5.13;;;2.10;;
48635;SDS011;34429;52.332;5.614;2022-09-09T10:02:15;5.95;;;2.28;;
48635;SDS011;34429;52.332;5.614;2022-09-09T10:04:47;6.57;;;2.35;;
48635;SDS011;34429;52.332;5.614;2022-09-09T10:07:17;6.65;;;2.20;;
48635;SDS011;34429;52.332;5.614;2022-09-09T10:09:48;5.80;;;1.88;;
48635;SDS011;34429;52.332;5.614;2022-09-09T10:12:24;5.75;;;2.38;;
48635;SDS011;34429;52.332;5.614;2022-09-09T10:15:05;6.63;;;2.10;;
48635;SDS011;34429;52.332;5.614;2022-09-09T10:17:44;7.82;;;2.10;;
48635;SDS011;34429;52.332;5.614;2022-09-09T10:23:02;4.75;;;2.03;;
48635;SDS011;34429;52.332;5.614;2022-09-09T10:25:43;9.57;;;2.00;;
48635;SDS011;34429;52.332;5.614;2022-09-09T10:28:30;9.38;;;2.67;;
48635;SDS011;34429;52.332;5.614;2022-09-09T10:31:14;5.97;;;2.10;;
48635;SDS011;34429;52.332;5.614;2022-09-09T10:33:51;4.47;;;1.80;;
48635;SDS011;34429;52.332;5.614;2022-09-09T10:36:26;5.53;;;1.70;;
48635;SDS011;34429;52.332;5.614;2022-09-09T10:38:58;5.90;;;2.53;;
48635;SDS011;34429;52.332;5.614;2022-09-09T10:41:35;9.00;;;2.17;;
48635;SDS011;34429;52.332;5.614;2022-09-09T10:47:22;3.97;;;1.88;;
48635;SDS011;34429;52.332;5.614;2022-09-09T10:50:03;4.55;;;1.80;;
48635;SDS011;34429;52.332;5.614;2022-09-09T10:52:54;5.18;;;1.85;;
48635;SDS011;34429;52.332;5.614;2022-09-09T10:55:33;5.47;;;2.08;;
48635;SDS011;34429;52.332;5.614;2022-09-09T10:58:05;3.70;;;2.05;;
48635;SDS011;34429;52.332;5.614;2022-09-09T11:00:41;8.02;;;2.20;;
48635;SDS011;34429;52.332;5.614;2022-09-09T11:03:18;7.15;;;2.33;;
48635;SDS011;34429;52.332;5.614;2022-09-09T11:05:51;6.47;;;2.47;;
48635;SDS011;34429;52.332;5.614;2022-09-09T11:08:24;8.80;;;2.05;;
48635;SDS011;34429;52.332;5.614;2022-09-09T11:10:57;5.20;;;2.30;;
48635;SDS011;34429;52.332;5.614;2022-09-09T11:13:30;8.20;;;2.33;;
48635;SDS011;34429;52.332;5.614;2022-09-09T11:16:16;8.93;;;2.60;;
48635;SDS011;34429;52.332;5.614;2022-09-09T11:18:52;7.50;;;2.55;;
48635;SDS011;34429;52.332;5.614;2022-09-09T11:21:26;7.43;;;2.65;;
48635;SDS011;34429;52.332;5.614;2022-09-09T11:23:59;9.13;;;2.70;;
48635;SDS011;34429;52.332;5.614;2022-09-09T11:26:31;5.95;;;2.58;;
48635;SDS011;34429;52.332;5.614;2022-09-09T11:29:13;6.07;;;2.65;;
48635;SDS011;34429;52.332;5.614;2022-09-09T11:31:56;6.20;;;2.50;;
48635;SDS011;34429;52.332;5.614;2022-09-09T11:34:39;4.95;;;1.98;;
48635;SDS011;34429;52.332;5.614;2022-09-09T11:40:17;6.07;;;2.15;;
48635;SDS011;34429;52.332;5.614;2022-09-09T11:43:00;5.15;;;2.35;;
48635;SDS011;34429;52.332;5.614;2022-09-09T11:45:31;7.57;;;2.15;;
48635;SDS011;34429;52.332;5.614;2022-09-09T11:48:01;6.43;;;1.98;;
48635;SDS011;34429;52.332;5.614;2022-09-09T11:50:35;2.75;;;2.00;;
48635;SDS011;34429;52.332;5.614;2022-09-09T11:56:03;7.72;;;2.40;;
48635;SDS011;34429;52.332;5.614;2022-09-09T11:58:39;6.30;;;2.37;;
48635;SDS011;34429;52.332;5.614;2022-09-09T12:04:05;4.95;;;3.03;;
48635;SDS011;34429;52.332;5.614;2022-09-09T12:06:48;5.75;;;3.05;;
48635;SDS011;34429;52.332;5.614;2022-09-09T12:09:22;6.13;;;2.35;;
48635;SDS011;34429;52.332;5.614;2022-09-09T12:12:04;5.85;;;2.33;;
48635;SDS011;34429;52.332;5.614;2022-09-09T12:14:58;4.80;;;2.03;;
48635;SDS011;34429;52.332;5.614;2022-09-09T12:17:31;5.03;;;2.13;;
48635;SDS011;34429;52.332;5.614;2022-09-09T12:20:11;6.43;;;2.25;;
48635;SDS011;34429;52.332;5.614;2022-09-09T12:22:51;2.25;;;1.70;;
48635;SDS011;34429;52.332;5.614;2022-09-09T12:25:47;3.63;;;1.90;;
48635;SDS011;34429;52.332;5.614;2022-09-09T12:28:23;4.80;;;2.10;;
48635;SDS011;34429;52.332;5.614;2022-09-09T12:31:02;6.05;;;2.08;;
48635;SDS011;34429;52.332;5.614;2022-09-09T12:33:39;7.05;;;2.67;;
48635;SDS011;34429;52.332;5.614;2022-09-09T12:36:11;6.40;;;2.03;;
48635;SDS011;34429;52.332;5.614;2022-09-09T12:38:46;6.50;;;2.13;;
48635;SDS011;34429;52.332;5.614;2022-09-09T12:41:20;6.13;;;2.15;;
48635;SDS011;34429;52.332;5.614;2022-09-09T12:43:50;6.28;;;2.70;;
48635;SDS011;34429;52.332;5.614;2022-09-09T12:46:24;6.20;;;2.22;;
48635;SDS011;34429;52.332;5.614;2022-09-09T12:48:58;5.70;;;2.90;;
48635;SDS011;34429;52.332;5.614;2022-09-09T12:51:28;5.47;;;3.00;;
48635;SDS011;34429;52.332;5.614;2022-09-09T12:54:01;6.97;;;2.85;;
48635;SDS011;34429;52.332;5.614;2022-09-09T12:56:30;6.15;;;2.53;;
48635;SDS011;34429;52.332;5.614;2022-09-09T12:59:00;7.25;;;3.00;;
48635;SDS011;34429;52.332;5.614;2022-09-09T13:01:29;7.40;;;2.53;;
48635;SDS011;34429;52.332;5.614;2022-09-09T13:03:59;4.32;;;2.78;;
48635;SDS011;34429;52.332;5.614;2022-09-09T13:06:28;7.28;;;2.80;;
48635;SDS011;34429;52.332;5.614;2022-09-09T13:09:01;6.20;;;2.95;;
48635;SDS011;34429;52.332;5.614;2022-09-09T13:11:31;5.88;;;3.10;;
48635;SDS011;34429;52.332;5.614;2022-09-09T13:14:04;8.00;;;3.33;;
48635;SDS011;34429;52.332;5.614;2022-09-09T13:16:34;6.18;;;2.58;;
48635;SDS011;34429;52.332;5.614;2022-09-09T13:19:06;11.13;;;2.92;;
48635;SDS011;34429;52.332;5.614;2022-09-09T13:21:37;10.43;;;2.95;;
48635;SDS011;34429;52.332;5.614;2022-09-09T13:24:22;5.35;;;2.70;;
48635;SDS011;34429;52.332;5.614;2022-09-09T13:26:55;7.15;;;3.08;;
48635;SDS011;34429;52.332;5.614;2022-09-09T13:29:25;6.72;;;2.80;;
48635;SDS011;34429;52.332;5.614;2022-09-09T13:31:53;4.35;;;2.92;;
48635;SDS011;34429;52.332;5.614;2022-09-09T13:34:32;6.03;;;2.83;;
48635;SDS011;34429;52.332;5.614;2022-09-09T13:37:02;6.35;;;3.58;;
48635;SDS011;34429;52.332;5.614;2022-09-09T13:39:36;4.50;;;3.00;;
48635;SDS011;34429;52.332;5.614;2022-09-09T13:42:05;5.43;;;2.65;;
48635;SDS011;34429;52.332;5.614;2022-09-09T13:44:47;6.53;;;3.03;;
48635;SDS011;34429;52.332;5.614;2022-09-09T13:47:17;5.68;;;2.50;;
48635;SDS011;34429;52.332;5.614;2022-09-09T13:49:48;4.13;;;2.33;;
48635;SDS011;34429;52.332;5.614;2022-09-09T13:52:17;4.72;;;2.58;;
48635;SDS011;34429;52.332;5.614;2022-09-09T13:54:50;5.35;;;2.78;;
48635;SDS011;34429;52.332;5.614;2022-09-09T13:57:21;8.32;;;2.60;;
48635;SDS011;34429;52.332;5.614;2022-09-09T13:59:51;6.13;;;2.65;;
48635;SDS011;34429;52.332;5.614;2022-09-09T14:02:21;5.53;;;2.60;;
48635;SDS011;34429;52.332;5.614;2022-09-09T14:04:50;4.10;;;2.65;;
48635;SDS011;34429;52.332;5.614;2022-09-09T14:07:20;4.47;;;2.40;;
48635;SDS011;34429;52.332;5.614;2022-09-09T14:09:52;4.32;;;2.33;;
48635;SDS011;34429;52.332;5.614;2022-09-09T14:12:21;4.82;;;2.40;;
48635;SDS011;34429;52.332;5.614;2022-09-09T14:14:49;4.40;;;2.73;;
48635;SDS011;34429;52.332;5.614;2022-09-09T14:17:17;4.80;;;2.60;;
48635;SDS011;34429;52.332;5.614;2022-09-09T14:19:47;7.15;;;2.80;;
48635;SDS011;34429;52.332;5.614;2022-09-09T14:22:15;5.35;;;2.83;;
48635;SDS011;34429;52.332;5.614;2022-09-09T14:24:43;7.33;;;3.50;;
48635;SDS011;34429;52.332;5.614;2022-09-09T14:27:14;5.77;;;3.00;;
48635;SDS011;34429;52.332;5.614;2022-09-09T14:29:44;4.80;;;2.85;;
48635;SDS011;34429;52.332;5.614;2022-09-09T14:32:12;6.68;;;2.92;;
48635;SDS011;34429;52.332;5.614;2022-09-09T14:34:41;4.05;;;2.50;;
48635;SDS011;34429;52.332;5.614;2022-09-09T14:37:09;4.10;;;3.08;;
48635;SDS011;34429;52.332;5.614;2022-09-09T14:39:37;4.60;;;2.35;;
48635;SDS011;34429;52.332;5.614;2022-09-09T14:42:09;5.18;;;2.65;;
48635;SDS011;34429;52.332;5.614;2022-09-09T14:44:39;5.70;;;2.75;;
48635;SDS011;34429;52.332;5.614;2022-09-09T14:47:08;8.23;;;2.67;;
48635;SDS011;34429;52.332;5.614;2022-09-09T14:49:37;4.70;;;2.53;;
48635;SDS011;34429;52.332;5.614;2022-09-09T14:52:06;4.78;;;2.88;;
48635;SDS011;34429;52.332;5.614;2022-09-09T14:54:34;2.22;;;1.90;;
48635;SDS011;34429;52.332;5.614;2022-09-09T14:57:03;3.97;;;2.30;;
48635;SDS011;34429;52.332;5.614;2022-09-09T14:59:31;6.85;;;2.47;;
48635;SDS011;34429;52.332;5.614;2022-09-09T15:02:02;4.72;;;2.30;;
48635;SDS011;34429;52.332;5.614;2022-09-09T15:04:30;4.28;;;2.25;;
48635;SDS011;34429;52.332;5.614;2022-09-09T15:06:59;7.68;;;2.78;;
48635;SDS011;34429;52.332;5.614;2022-09-09T15:09:27;2.90;;;2.50;;
48635;SDS011;34429;52.332;5.614;2022-09-09T15:11:56;5.25;;;2.30;;
48635;SDS011;34429;52.332;5.614;2022-09-09T15:14:24;5.55;;;2.42;;
48635;SDS011;34429;52.332;5.614;2022-09-09T15:16:53;8.30;;;2.60;;
48635;SDS011;34429;52.332;5.614;2022-09-09T15:19:24;5.60;;;2.30;;
48635;SDS011;34429;52.332;5.614;2022-09-09T15:21:53;5.65;;;2.40;;
48635;SDS011;34429;52.332;5.614;2022-09-09T15:24:21;5.82;;;2.50;;
48635;SDS011;34429;52.332;5.614;2022-09-09T15:26:50;5.00;;;2.05;;
48635;SDS011;34429;52.332;5.614;2022-09-09T15:29:19;4.90;;;2.80;;
48635;SDS011;34429;52.332;5.614;2022-09-09T15:31:47;5.10;;;3.10;;
48635;SDS011;34429;52.332;5.614;2022-09-09T15:34:15;2.63;;;2.17;;
48635;SDS011;34429;52.332;5.614;2022-09-09T15:36:46;4.47;;;2.30;;
48635;SDS011;34429;52.332;5.614;2022-09-09T15:39:15;6.70;;;2.13;;
48635;SDS011;34429;52.332;5.614;2022-09-09T15:41:45;7.35;;;2.30;;
48635;SDS011;34429;52.332;5.614;2022-09-09T15:44:14;4.45;;;2.60;;
48635;SDS011;34429;52.332;5.614;2022-09-09T15:46:44;7.03;;;3.00;;
48635;SDS011;34429;52.332;5.614;2022-09-09T15:49:15;3.22;;;2.35;;